createdAt,value
2019-05-29T00:00:54.124Z,0
2019-05-29T00:01:53.698Z,0
2019-05-29T00:02:53.472Z,0
2019-05-29T00:03:53.621Z,0
2019-05-29T00:04:53.438Z,0
2019-05-29T00:05:53.189Z,0
2019-05-29T00:06:53.486Z,0
2019-05-29T00:07:53.700Z,0
2019-05-29T00:08:54.606Z,0
2019-05-29T00:09:56.538Z,0
2019-05-29T00:10:53.441Z,0
2019-05-29T00:11:53.414Z,0
2019-05-29T00:12:53.165Z,0
2019-05-29T00:13:53.671Z,0
2019-05-29T00:14:53.649Z,0
2019-05-29T00:15:53.409Z,0
2019-05-29T00:16:53.427Z,0
2019-05-29T00:17:53.670Z,0
2019-05-29T00:18:53.660Z,0
2019-05-29T00:19:59.521Z,0
2019-05-29T00:20:56.416Z,0
2019-05-29T00:21:52.921Z,0
2019-05-29T00:22:53.646Z,0
2019-05-29T00:23:53.655Z,0
2019-05-29T00:24:53.675Z,0
2019-05-29T00:25:53.431Z,0
2019-05-29T00:26:53.677Z,0
2019-05-29T00:27:53.616Z,0
2019-05-29T00:28:53.123Z,0
2019-05-29T00:29:54.458Z,0
2019-05-29T00:30:56.662Z,0
2019-05-29T00:32:00.209Z,0
2019-05-29T00:32:53.881Z,0
2019-05-29T00:33:53.608Z,0
2019-05-29T00:34:53.838Z,0
2019-05-29T00:35:53.634Z,0
2019-05-29T00:36:53.585Z,0
2019-05-29T00:37:53.389Z,0
2019-05-29T00:38:53.569Z,0
2019-05-29T00:39:53.583Z,0
2019-05-29T00:40:55.729Z,0
2019-05-29T00:41:59.898Z,0
2019-05-29T00:42:53.590Z,0
2019-05-29T00:43:53.816Z,0
2019-05-29T00:44:53.341Z,0
2019-05-29T00:45:53.073Z,0
2019-05-29T00:46:53.793Z,0
2019-05-29T00:47:53.808Z,0
2019-05-29T00:48:53.546Z,0
2019-05-29T00:49:53.324Z,0
2019-05-29T00:50:53.298Z,0
2019-05-29T00:51:54.474Z,0
2019-05-29T00:52:56.587Z,0
2019-05-29T00:53:53.317Z,0
2019-05-29T00:54:53.807Z,0
2019-05-29T00:55:53.281Z,0
2019-05-29T00:56:53.780Z,0
2019-05-29T00:57:53.029Z,0
2019-05-29T00:58:53.513Z,0
2019-05-29T00:59:53.506Z,0
2019-05-29T01:00:53.774Z,0
2019-05-29T01:01:53.787Z,0
2019-05-29T01:02:56.752Z,0
2019-05-29T01:03:56.293Z,0
2019-05-29T01:04:53.548Z,0
2019-05-29T01:05:53.247Z,0
2019-05-29T01:06:53.544Z,0
2019-05-29T01:07:52.999Z,0
2019-05-29T01:08:53.522Z,0
2019-05-29T01:09:53.764Z,0
2019-05-29T01:10:53.550Z,0
2019-05-29T01:11:53.481Z,0
2019-05-29T01:12:54.702Z,0
2019-05-29T01:13:56.502Z,0
2019-05-29T01:15:02.967Z,0
2019-05-29T01:15:53.225Z,0
2019-05-29T01:16:53.495Z,0
2019-05-29T01:17:53.503Z,0
2019-05-29T01:18:53.450Z,0
2019-05-29T01:19:53.208Z,0
2019-05-29T01:20:53.491Z,0
2019-05-29T01:21:53.190Z,0
2019-05-29T01:22:53.886Z,0
2019-05-29T01:23:55.967Z,0
2019-05-29T01:24:55.974Z,0
2019-05-29T01:25:53.486Z,0
2019-05-29T01:26:53.672Z,0
2019-05-29T01:27:53.188Z,0
2019-05-29T01:28:53.432Z,0
2019-05-29T01:29:53.446Z,0
2019-05-29T01:30:56.043Z,0
2019-05-29T01:31:53.183Z,0
2019-05-29T01:32:53.432Z,0
2019-05-29T01:33:53.659Z,0
2019-05-29T01:34:54.621Z,0
2019-05-29T01:35:56.674Z,0
2019-05-29T01:36:53.443Z,0
2019-05-29T01:37:53.643Z,0
2019-05-29T01:38:53.381Z,0
2019-05-29T01:39:53.385Z,0
2019-05-29T01:40:53.438Z,0
2019-05-29T01:41:53.384Z,0
2019-05-29T01:42:56.728Z,0
2019-05-29T01:43:53.618Z,0
2019-05-29T01:45:09.605Z,0
2019-05-29T01:45:55.902Z,0
2019-05-29T01:46:56.386Z,0
2019-05-29T01:47:52.880Z,0
2019-05-29T01:48:53.342Z,0
2019-05-29T01:49:53.343Z,0
2019-05-29T01:50:53.354Z,0
2019-05-29T01:51:53.171Z,0
2019-05-29T01:52:53.333Z,0
2019-05-29T01:53:53.566Z,0
2019-05-29T01:54:52.897Z,0
2019-05-29T01:55:53.741Z,0
2019-05-29T01:56:56.378Z,0
2019-05-29T01:57:53.326Z,0
2019-05-29T01:58:53.065Z,0
2019-05-29T01:59:52.825Z,0
2019-05-29T02:00:53.305Z,0
2019-05-29T02:01:53.563Z,0
2019-05-29T02:02:53.545Z,0
2019-05-29T02:03:53.602Z,0
2019-05-29T02:04:53.299Z,0
2019-05-29T02:05:53.565Z,0
2019-05-29T02:06:55.201Z,0
2019-05-29T02:07:59.314Z,0
2019-05-29T02:08:53.276Z,0
2019-05-29T02:09:53.292Z,0
2019-05-29T02:10:53.260Z,0
2019-05-29T02:11:53.273Z,0
2019-05-29T02:12:53.020Z,0
2019-05-29T02:13:52.788Z,0
2019-05-29T02:14:53.260Z,0
2019-05-29T02:15:52.759Z,0
2019-05-29T02:16:53.236Z,0
2019-05-29T02:17:54.682Z,0
2019-05-29T02:18:56.533Z,0
2019-05-29T02:19:53.496Z,0
2019-05-29T02:20:53.243Z,0
2019-05-29T02:21:53.272Z,0
2019-05-29T02:22:53.269Z,0
2019-05-29T02:23:53.506Z,0
2019-05-29T02:24:52.965Z,0
2019-05-29T02:25:53.212Z,0
2019-05-29T02:26:53.205Z,0
2019-05-29T02:27:53.216Z,0
2019-05-29T02:28:55.990Z,0
2019-05-29T02:29:56.230Z,0
2019-05-29T02:30:52.945Z,0
2019-05-29T02:31:53.448Z,0
2019-05-29T02:32:53.215Z,0
2019-05-29T02:33:53.214Z,0
2019-05-29T02:34:53.228Z,0
2019-05-29T02:35:53.197Z,0
2019-05-29T02:36:53.197Z,0
2019-05-29T02:37:52.933Z,0
2019-05-29T02:38:53.797Z,0
2019-05-29T02:39:56.523Z,0
2019-05-29T02:40:59.691Z,0
2019-05-29T02:41:52.922Z,0
2019-05-29T02:42:53.405Z,0
2019-05-29T02:43:52.916Z,0
2019-05-29T02:44:53.424Z,0
2019-05-29T02:46:03.580Z,0
2019-05-29T02:46:53.148Z,0
2019-05-29T02:47:53.390Z,0
2019-05-29T02:48:53.396Z,0
2019-05-29T02:49:56.168Z,0
2019-05-29T02:50:59.647Z,0
2019-05-29T02:51:53.146Z,0
2019-05-29T02:52:53.102Z,0
2019-05-29T02:53:53.118Z,0
2019-05-29T02:54:53.374Z,0
2019-05-29T02:55:53.366Z,0
2019-05-29T02:56:53.124Z,0
2019-05-29T02:57:53.359Z,0
2019-05-29T02:58:53.379Z,0
2019-05-29T02:59:53.085Z,0
2019-05-29T03:00:54.730Z,0
2019-05-29T03:01:56.367Z,0
2019-05-29T03:02:52.862Z,0
2019-05-29T03:03:53.319Z,0
2019-05-29T03:04:52.839Z,0
2019-05-29T03:05:52.822Z,0
2019-05-29T03:06:53.384Z,0
2019-05-29T03:07:53.050Z,0
2019-05-29T03:08:53.088Z,0
2019-05-29T03:09:53.059Z,0
2019-05-29T03:10:53.342Z,0
2019-05-29T03:12:02.410Z,0
2019-05-29T03:12:56.322Z,0
2019-05-29T03:13:53.099Z,0
2019-05-29T03:14:53.044Z,0
2019-05-29T03:16:16.246Z,0
2019-05-29T03:16:52.784Z,0
2019-05-29T03:17:53.281Z,0
2019-05-29T03:18:52.813Z,0
2019-05-29T03:19:52.800Z,0
2019-05-29T03:20:53.031Z,0
2019-05-29T03:21:53.620Z,0
2019-05-29T03:22:56.073Z,0
2019-05-29T03:23:53.022Z,0
2019-05-29T03:24:53.267Z,0
2019-05-29T03:25:53.233Z,0
2019-05-29T03:26:53.236Z,0
2019-05-29T03:27:53.213Z,0
2019-05-29T03:28:52.996Z,0
2019-05-29T03:29:53.003Z,0
2019-05-29T03:30:55.925Z,0
2019-05-29T03:31:57.519Z,0
2019-05-29T03:32:58.084Z,0
2019-05-29T03:34:06.175Z,0
2019-05-29T03:34:58.120Z,0
2019-05-29T03:35:58.011Z,0
2019-05-29T03:36:58.074Z,5
2019-05-29T03:37:53.219Z,5
2019-05-29T03:38:53.186Z,5
2019-05-29T03:39:52.966Z,5
2019-05-29T03:40:52.947Z,5
2019-05-29T03:41:52.721Z,5
2019-05-29T03:42:52.677Z,5
2019-05-29T03:43:54.765Z,5
2019-05-29T03:44:56.208Z,5
2019-05-29T03:45:52.937Z,5
2019-05-29T03:46:55.491Z,10
2019-05-29T03:47:52.953Z,10
2019-05-29T03:48:52.687Z,10
2019-05-29T03:49:53.177Z,10
2019-05-29T03:50:53.180Z,10
2019-05-29T03:51:53.145Z,10
2019-05-29T03:52:52.426Z,10
2019-05-29T03:53:52.929Z,15
2019-05-29T03:54:56.206Z,15
2019-05-29T03:55:56.212Z,15
2019-05-29T03:56:53.209Z,15
2019-05-29T03:57:53.136Z,20
2019-05-29T03:58:52.918Z,20
2019-05-29T03:59:52.894Z,20
2019-05-29T04:00:56.437Z,25
2019-05-29T04:01:52.867Z,25
2019-05-29T04:02:52.872Z,25
2019-05-29T04:03:52.625Z,25
2019-05-29T04:04:53.282Z,30
2019-05-29T04:05:55.927Z,30
2019-05-29T04:06:58.988Z,25
2019-05-29T04:07:52.849Z,25
2019-05-29T04:08:52.859Z,25
2019-05-29T04:09:52.612Z,30
2019-05-29T04:10:52.576Z,30
2019-05-29T04:11:53.103Z,30
2019-05-29T04:12:52.839Z,30
2019-05-29T04:13:52.875Z,35
2019-05-29T04:14:53.100Z,35
2019-05-29T04:15:55.615Z,35
2019-05-29T04:17:09.079Z,35
2019-05-29T04:17:52.828Z,35
2019-05-29T04:18:53.097Z,35
2019-05-29T04:19:53.045Z,35
2019-05-29T04:20:53.050Z,35
2019-05-29T04:21:52.791Z,35
2019-05-29T04:22:52.578Z,35
2019-05-29T04:23:52.809Z,35
2019-05-29T04:24:52.816Z,40
2019-05-29T04:25:52.548Z,40
2019-05-29T04:26:54.614Z,35
2019-05-29T04:27:55.874Z,35
2019-05-29T04:28:52.590Z,35
2019-05-29T04:29:52.802Z,40
2019-05-29T04:30:53.042Z,40
2019-05-29T04:31:52.778Z,40
2019-05-29T04:32:52.536Z,45
2019-05-29T04:33:52.524Z,50
2019-05-29T04:34:52.520Z,50
2019-05-29T04:35:52.762Z,50
2019-05-29T04:36:52.781Z,55
2019-05-29T04:37:55.558Z,55
2019-05-29T04:38:56.043Z,60
2019-05-29T04:39:52.513Z,60
2019-05-29T04:40:52.277Z,60
2019-05-29T04:41:52.749Z,55
2019-05-29T04:42:52.537Z,55
2019-05-29T04:43:56.228Z,55
2019-05-29T04:44:52.751Z,50
2019-05-29T04:45:52.515Z,45
2019-05-29T04:47:12.570Z,35
2019-05-29T04:47:53.538Z,35
2019-05-29T04:48:55.991Z,35
2019-05-29T04:49:52.695Z,35
2019-05-29T04:50:53.026Z,40
2019-05-29T04:51:52.711Z,40
2019-05-29T04:52:52.477Z,40
2019-05-29T04:53:52.465Z,45
2019-05-29T04:54:52.701Z,45
2019-05-29T04:55:52.225Z,50
2019-05-29T04:56:52.427Z,50
2019-05-29T04:57:55.430Z,50
2019-05-29T04:58:55.457Z,50
2019-05-29T04:59:53.866Z,50
2019-05-29T05:01:07.666Z,50
2019-05-29T05:01:52.409Z,55
2019-05-29T05:02:52.445Z,55
2019-05-29T05:03:52.407Z,60
2019-05-29T05:04:52.416Z,60
2019-05-29T05:05:52.682Z,55
2019-05-29T05:06:52.655Z,55
2019-05-29T05:07:52.686Z,60
2019-05-29T05:08:52.659Z,65
2019-05-29T05:09:53.989Z,65
2019-05-29T05:10:58.665Z,70
2019-05-29T05:11:52.130Z,70
2019-05-29T05:12:52.846Z,65
2019-05-29T05:13:52.379Z,60
2019-05-29T05:14:52.617Z,60
2019-05-29T05:15:52.879Z,65
2019-05-29T05:16:52.627Z,65
2019-05-29T05:17:52.381Z,65
2019-05-29T05:18:52.096Z,65
2019-05-29T05:19:52.353Z,65
2019-05-29T05:20:58.374Z,65
2019-05-29T05:21:55.603Z,60
2019-05-29T05:22:52.336Z,60
2019-05-29T05:23:52.345Z,60
2019-05-29T05:24:53.667Z,60
2019-05-29T05:25:52.084Z,60
2019-05-29T05:26:52.365Z,60
2019-05-29T05:27:52.350Z,60
2019-05-29T05:28:55.726Z,60
2019-05-29T05:29:52.314Z,60
2019-05-29T05:30:53.191Z,55
2019-05-29T05:31:55.604Z,55
2019-05-29T05:32:59.167Z,60
2019-05-29T05:33:52.328Z,55
2019-05-29T05:34:52.568Z,55
2019-05-29T05:35:52.311Z,50
2019-05-29T05:36:52.555Z,50
2019-05-29T05:37:52.331Z,50
2019-05-29T05:38:52.281Z,50
2019-05-29T05:39:52.552Z,55
2019-05-29T05:40:52.675Z,55
2019-05-29T05:41:55.081Z,50
2019-05-29T05:42:59.104Z,50
2019-05-29T05:43:52.040Z,50
2019-05-29T05:44:52.552Z,45
2019-05-29T05:45:52.547Z,45
2019-05-29T05:46:52.031Z,40
2019-05-29T05:48:05.644Z,40
2019-05-29T05:48:52.255Z,40
2019-05-29T05:49:52.265Z,40
2019-05-29T05:50:52.506Z,40
2019-05-29T05:51:53.830Z,40
2019-05-29T05:52:53.622Z,40
2019-05-29T05:53:55.542Z,40
2019-05-29T05:54:52.752Z,40
2019-05-29T05:55:52.024Z,40
2019-05-29T05:56:55.641Z,40
2019-05-29T05:57:52.260Z,40
2019-05-29T05:58:52.268Z,40
2019-05-29T05:59:52.494Z,45
2019-05-29T06:00:51.991Z,45
2019-05-29T06:01:52.489Z,50
2019-05-29T06:02:54.727Z,50
2019-05-29T06:03:55.506Z,55
2019-05-29T06:04:55.562Z,60
2019-05-29T06:05:52.304Z,70
2019-05-29T06:06:52.222Z,75
2019-05-29T06:07:52.483Z,85
2019-05-29T06:08:52.489Z,90
2019-05-29T06:09:52.246Z,90
2019-05-29T06:10:55.572Z,85
2019-05-29T06:11:52.187Z,85
2019-05-29T06:12:52.266Z,90
2019-05-29T06:13:53.040Z,85
2019-05-29T06:14:55.492Z,85
2019-05-29T06:15:52.478Z,85
2019-05-29T06:16:51.934Z,75
2019-05-29T06:18:28.130Z,65
2019-05-29T06:18:52.567Z,60
2019-05-29T06:19:52.016Z,60
2019-05-29T06:20:52.573Z,60
2019-05-29T06:21:52.181Z,60
2019-05-29T06:22:52.959Z,65
2019-05-29T06:23:52.769Z,70
2019-05-29T06:24:55.265Z,70
2019-05-29T06:25:56.030Z,70
2019-05-29T06:26:52.671Z,70
2019-05-29T06:27:52.727Z,70
2019-05-29T06:28:52.388Z,75
2019-05-29T06:29:52.878Z,80
2019-05-29T06:30:54.027Z,80
2019-05-29T06:31:52.537Z,80
2019-05-29T06:32:52.460Z,80
2019-05-29T06:33:53.381Z,85
2019-05-29T06:34:53.169Z,95
2019-05-29T06:35:56.725Z,100
2019-05-29T06:36:58.535Z,120
2019-05-29T06:37:52.840Z,125
2019-05-29T06:38:53.752Z,130
2019-05-29T06:39:53.280Z,125
2019-05-29T06:40:53.362Z,115
2019-05-29T06:41:53.221Z,110
2019-05-29T06:42:53.247Z,105
2019-05-29T06:43:54.080Z,105
2019-05-29T06:44:57.244Z,105
2019-05-29T06:45:53.138Z,110
2019-05-29T06:46:57.927Z,115
2019-05-29T06:47:57.002Z,120
2019-05-29T06:49:14.532Z,115
2019-05-29T06:49:53.829Z,115
2019-05-29T06:50:57.019Z,115
2019-05-29T06:51:52.745Z,120
2019-05-29T06:52:52.899Z,120
2019-05-29T06:53:53.000Z,115
2019-05-29T06:54:53.453Z,115
2019-05-29T06:56:02.237Z,110
2019-05-29T06:56:52.848Z,110
2019-05-29T06:57:56.834Z,110
2019-05-29T06:58:56.735Z,110
2019-05-29T06:59:55.710Z,115
2019-05-29T07:00:53.968Z,110
2019-05-29T07:01:52.583Z,105
2019-05-29T07:02:53.498Z,100
2019-05-29T07:04:10.431Z,105
2019-05-29T07:04:53.478Z,105
2019-05-29T07:06:00.264Z,105
2019-05-29T07:06:52.063Z,105
2019-05-29T07:07:55.652Z,100
2019-05-29T07:08:58.462Z,100
2019-05-29T07:09:51.869Z,100
2019-05-29T07:10:53.859Z,100
2019-05-29T07:11:52.552Z,105
2019-05-29T07:12:53.270Z,105
2019-05-29T07:13:57.712Z,110
2019-05-29T07:14:52.290Z,110
2019-05-29T07:15:54.573Z,115
2019-05-29T07:17:03.621Z,125
2019-05-29T07:17:53.795Z,130
2019-05-29T07:20:07.457Z,125
2019-05-29T07:20:16.859Z,125
2019-05-29T07:21:16.879Z,120
2019-05-29T07:22:16.880Z,125
2019-05-29T07:23:23.636Z,130
2019-05-29T07:24:19.641Z,140
2019-05-29T07:25:17.106Z,145
2019-05-29T07:26:17.114Z,150
2019-05-29T07:27:22.353Z,155
2019-05-29T07:28:17.375Z,155
2019-05-29T07:29:17.720Z,155
2019-05-29T07:30:17.334Z,155
2019-05-29T07:31:16.869Z,145
2019-05-29T07:32:17.091Z,135
2019-05-29T07:33:17.128Z,135
2019-05-29T07:34:19.659Z,130
2019-05-29T07:35:20.140Z,135
2019-05-29T07:36:16.846Z,140
2019-05-29T07:37:17.388Z,140
2019-05-29T07:38:17.356Z,140
2019-05-29T07:39:16.817Z,140
2019-05-29T07:40:16.814Z,140
2019-05-29T07:41:17.352Z,135
2019-05-29T07:42:16.816Z,140
2019-05-29T07:43:17.085Z,140
2019-05-29T07:44:16.764Z,140
2019-05-29T07:45:20.103Z,140
2019-05-29T07:46:20.364Z,145
2019-05-29T07:47:19.531Z,145
2019-05-29T07:48:17.058Z,140
2019-05-29T07:49:16.561Z,135
2019-05-29T07:50:17.318Z,135
2019-05-29T07:51:16.871Z,145
2019-05-29T07:52:16.794Z,150
2019-05-29T07:53:17.284Z,145
2019-05-29T07:54:17.212Z,150
2019-05-29T07:55:19.633Z,155
2019-05-29T07:56:32.020Z,165
2019-05-29T07:57:17.279Z,165
2019-05-29T07:58:17.056Z,170
2019-05-29T07:59:17.308Z,175
2019-05-29T08:00:17.285Z,180
2019-05-29T08:01:22.618Z,190
2019-05-29T08:02:16.766Z,205
2019-05-29T08:03:16.556Z,215
2019-05-29T08:04:17.040Z,230
2019-05-29T08:05:17.020Z,245
2019-05-29T08:06:23.455Z,255
2019-05-29T08:07:20.074Z,260
2019-05-29T08:08:17.277Z,270
2019-05-29T08:09:16.760Z,280
2019-05-29T08:10:16.771Z,290
2019-05-29T08:11:16.964Z,300
2019-05-29T08:12:16.757Z,315
2019-05-29T08:13:16.764Z,325
2019-05-29T08:14:17.000Z,335
2019-05-29T08:15:17.040Z,345
2019-05-29T08:16:17.002Z,350
2019-05-29T08:17:20.096Z,365
2019-05-29T08:18:18.860Z,365
2019-05-29T08:19:17.243Z,375
2019-05-29T08:20:17.489Z,380
2019-05-29T08:21:17.248Z,375
2019-05-29T08:22:33.193Z,385
2019-05-29T08:23:17.000Z,385
2019-05-29T08:24:17.008Z,385
2019-05-29T08:25:17.256Z,390
2019-05-29T08:26:17.274Z,390
2019-05-29T08:27:16.760Z,385
2019-05-29T08:28:16.828Z,380
2019-05-29T08:29:17.020Z,375
2019-05-29T08:30:16.930Z,375
2019-05-29T08:31:17.241Z,375
2019-05-29T08:32:17.245Z,380
2019-05-29T08:33:16.766Z,380
2019-05-29T08:34:17.029Z,385
2019-05-29T08:35:17.098Z,380
2019-05-29T08:36:16.748Z,370
2019-05-29T08:37:16.510Z,365
2019-05-29T08:38:16.997Z,365
2019-05-29T08:39:37.061Z,360
2019-05-29T08:40:16.997Z,365
2019-05-29T08:41:16.753Z,360
2019-05-29T08:42:31.983Z,365
2019-05-29T08:43:16.977Z,365
2019-05-29T08:44:16.755Z,365
2019-05-29T08:45:16.526Z,365
2019-05-29T08:46:17.012Z,365
2019-05-29T08:47:20.310Z,360
2019-05-29T08:48:16.767Z,355
2019-05-29T08:49:16.508Z,355
2019-05-29T08:50:27.530Z,355
2019-05-29T08:51:16.497Z,355
2019-05-29T08:52:21.659Z,355
2019-05-29T08:53:16.496Z,350
2019-05-29T08:54:33.153Z,345
2019-05-29T08:55:18.734Z,345
2019-05-29T08:56:17.062Z,350
2019-05-29T08:57:17.037Z,355
2019-05-29T08:58:16.790Z,355
2019-05-29T08:59:16.773Z,355
2019-05-29T09:00:16.831Z,345
2019-05-29T09:01:16.782Z,330
2019-05-29T09:02:16.834Z,315
2019-05-29T09:03:16.777Z,310
2019-05-29T09:04:16.744Z,305
2019-05-29T09:05:17.036Z,290
2019-05-29T09:06:20.486Z,285
2019-05-29T09:07:17.272Z,290
2019-05-29T09:08:17.066Z,305
2019-05-29T09:09:17.122Z,325
2019-05-29T09:10:17.026Z,340
2019-05-29T09:11:16.793Z,355
2019-05-29T09:12:16.795Z,375
2019-05-29T09:13:17.064Z,385
2019-05-29T09:14:17.059Z,405
2019-05-29T09:15:23.586Z,415
2019-05-29T09:16:17.049Z,420
2019-05-29T09:17:20.090Z,420
2019-05-29T09:18:17.277Z,415
2019-05-29T09:19:18.654Z,410
2019-05-29T09:21:08.986Z,405
2019-05-29T09:21:26.489Z,400
2019-05-29T09:22:21.013Z,390
2019-05-29T09:23:21.281Z,370
2019-05-29T09:24:23.362Z,355
2019-05-29T09:25:21.284Z,330
2019-05-29T09:26:30.862Z,315
2019-05-29T09:27:21.321Z,315
2019-05-29T09:28:23.822Z,315
2019-05-29T09:29:25.724Z,315
2019-05-29T09:30:23.593Z,315
2019-05-29T09:31:23.795Z,315
2019-05-29T09:32:46.156Z,320
2019-05-29T09:33:23.366Z,325
2019-05-29T09:34:22.659Z,335
2019-05-29T09:35:23.631Z,335
2019-05-29T09:36:22.593Z,345
2019-05-29T09:37:22.401Z,350
2019-05-29T09:38:21.181Z,370
2019-05-29T09:39:23.301Z,390
2019-05-29T09:40:21.372Z,405
2019-05-29T09:41:21.806Z,415
2019-05-29T09:42:22.266Z,420
2019-05-29T09:43:26.845Z,425
2019-05-29T09:44:44.207Z,425
2019-05-29T09:45:19.776Z,425
2019-05-29T09:46:23.658Z,425
2019-05-29T09:47:22.148Z,425
2019-05-29T09:48:27.275Z,430
2019-05-29T09:49:20.392Z,440
2019-05-29T09:50:23.203Z,440
2019-05-29T09:51:30.044Z,440
2019-05-29T09:52:18.686Z,435
2019-05-29T09:53:18.691Z,430
2019-05-29T09:54:18.823Z,430
2019-05-29T09:55:18.417Z,425
2019-05-29T09:56:18.512Z,425
2019-05-29T09:57:21.854Z,435
2019-05-29T09:58:18.457Z,445
2019-05-29T09:59:18.441Z,445
2019-05-29T10:00:18.445Z,450
2019-05-29T10:01:33.242Z,505
2019-05-29T10:02:19.166Z,455
2019-05-29T10:03:17.936Z,430
2019-05-29T10:04:18.703Z,415
2019-05-29T10:05:17.696Z,395
2019-05-29T10:06:18.690Z,380
2019-05-29T10:07:18.458Z,380
2019-05-29T10:08:21.834Z,385
2019-05-29T10:09:17.946Z,390
2019-05-29T10:10:18.700Z,400
2019-05-29T10:11:20.438Z,390
2019-05-29T10:12:18.473Z,370
2019-05-29T10:13:18.197Z,350
2019-05-29T10:14:17.975Z,335
2019-05-29T10:15:18.200Z,315
2019-05-29T10:16:18.278Z,315
2019-05-29T10:17:21.922Z,310
2019-05-29T10:18:40.303Z,305
2019-05-29T10:19:18.712Z,310
2019-05-29T10:20:18.716Z,295
2019-05-29T10:21:18.528Z,295
2019-05-29T10:22:18.572Z,290
2019-05-29T10:23:20.063Z,290
2019-05-29T10:24:18.006Z,290
2019-05-29T10:25:18.562Z,280
2019-05-29T10:26:18.217Z,275
2019-05-29T10:27:18.726Z,275
2019-05-29T10:28:18.736Z,285
2019-05-29T10:29:19.684Z,300
2019-05-29T10:30:18.221Z,305
2019-05-29T10:31:18.598Z,310
2019-05-29T10:32:18.485Z,310
2019-05-29T10:33:18.508Z,315
2019-05-29T10:34:19.099Z,320
2019-05-29T10:35:18.457Z,325
2019-05-29T10:36:18.243Z,325
2019-05-29T10:37:20.574Z,330
2019-05-29T10:38:18.473Z,335
2019-05-29T10:39:22.068Z,335
2019-05-29T10:40:18.505Z,345
2019-05-29T10:41:18.535Z,345
2019-05-29T10:42:22.751Z,345
2019-05-29T10:43:35.434Z,355
2019-05-29T10:44:22.263Z,350
2019-05-29T10:45:18.230Z,355
2019-05-29T10:46:18.231Z,355
2019-05-29T10:47:18.236Z,360
2019-05-29T10:48:19.018Z,370
2019-05-29T10:49:18.605Z,370
2019-05-29T10:50:18.846Z,380
2019-05-29T10:51:18.470Z,380
2019-05-29T10:52:25.787Z,390
2019-05-29T10:53:18.467Z,395
2019-05-29T10:54:18.336Z,395
2019-05-29T10:55:18.456Z,400
2019-05-29T10:56:20.979Z,405
2019-05-29T10:57:18.541Z,410
2019-05-29T10:58:17.977Z,415
2019-05-29T10:59:18.472Z,420
2019-05-29T11:00:18.470Z,420
2019-05-29T11:01:18.762Z,425
2019-05-29T11:02:18.595Z,425
2019-05-29T11:03:18.757Z,430
2019-05-29T11:04:18.519Z,430
2019-05-29T11:05:17.979Z,435
2019-05-29T11:06:18.472Z,435
2019-05-29T11:07:18.011Z,435
2019-05-29T11:08:18.478Z,440
2019-05-29T11:09:18.487Z,435
2019-05-29T11:10:22.315Z,440
2019-05-29T11:11:18.485Z,440
2019-05-29T11:12:18.748Z,445
2019-05-29T11:13:18.470Z,445
2019-05-29T11:14:18.234Z,445
2019-05-29T11:15:30.205Z,445
2019-05-29T11:16:18.471Z,445
2019-05-29T11:17:18.730Z,445
2019-05-29T11:18:18.738Z,440
2019-05-29T11:19:18.234Z,440
2019-05-29T11:20:18.537Z,440
2019-05-29T11:21:18.774Z,435
2019-05-29T11:22:34.290Z,435
2019-05-29T11:23:18.251Z,430
2019-05-29T11:24:18.762Z,430
2019-05-29T11:25:34.848Z,430
2019-05-29T11:26:18.272Z,430
2019-05-29T11:27:18.552Z,445
2019-05-29T11:28:18.527Z,425
2019-05-29T11:29:18.481Z,425
2019-05-29T11:30:18.514Z,420
2019-05-29T11:31:20.465Z,410
2019-05-29T11:32:18.491Z,410
2019-05-29T11:33:18.383Z,405
2019-05-29T11:34:18.510Z,395
2019-05-29T11:35:18.518Z,395
2019-05-29T11:36:22.643Z,390
2019-05-29T11:37:18.251Z,385
2019-05-29T11:38:18.575Z,380
2019-05-29T11:39:18.039Z,380
2019-05-29T11:40:18.767Z,390
2019-05-29T11:41:35.300Z,395
2019-05-29T11:42:33.794Z,395
2019-05-29T11:43:18.024Z,395
2019-05-29T11:44:18.811Z,390
2019-05-29T11:45:18.791Z,390
2019-05-29T11:46:18.565Z,395
2019-05-29T11:47:18.676Z,395
2019-05-29T11:48:18.848Z,400
2019-05-29T11:49:18.823Z,400
2019-05-29T11:50:28.525Z,410
2019-05-29T11:51:18.585Z,405
2019-05-29T11:52:48.601Z,395
2019-05-29T11:53:18.568Z,385
2019-05-29T11:54:18.293Z,385
2019-05-29T11:55:18.823Z,390
2019-05-29T11:56:18.409Z,400
2019-05-29T11:57:18.818Z,415
2019-05-29T11:58:36.934Z,415
2019-05-29T11:59:18.055Z,420
2019-05-29T12:00:29.152Z,420
2019-05-29T12:01:18.543Z,450
2019-05-29T12:02:18.723Z,470
2019-05-29T12:03:18.797Z,455
2019-05-29T12:04:34.692Z,435
2019-05-29T12:05:18.803Z,430
2019-05-29T12:06:18.897Z,410
2019-05-29T12:07:18.073Z,405
2019-05-29T12:08:18.311Z,390
2019-05-29T12:09:37.320Z,395
2019-05-29T12:10:19.677Z,400
2019-05-29T12:11:18.546Z,410
2019-05-29T12:12:18.679Z,410
2019-05-29T12:13:18.547Z,400
2019-05-29T12:14:18.931Z,395
2019-05-29T12:15:25.813Z,375
2019-05-29T12:16:18.559Z,360
2019-05-29T12:17:18.871Z,355
2019-05-29T12:18:32.206Z,330
2019-05-29T12:19:18.577Z,310
2019-05-29T12:20:36.266Z,280
2019-05-29T12:21:18.824Z,275
2019-05-29T12:22:18.123Z,240
2019-05-29T12:23:34.490Z,210
2019-05-29T12:24:18.343Z,195
2019-05-29T12:25:18.580Z,175
2019-05-29T12:26:31.828Z,160
2019-05-29T12:27:18.332Z,155
2019-05-29T12:28:18.608Z,145
2019-05-29T12:29:21.317Z,150
2019-05-29T12:30:18.586Z,140
2019-05-29T12:31:18.595Z,135
2019-05-29T12:32:21.510Z,135
2019-05-29T12:33:18.584Z,130
2019-05-29T12:34:28.557Z,140
2019-05-29T12:35:18.837Z,145
2019-05-29T12:36:18.827Z,160
2019-05-29T12:37:18.590Z,175
2019-05-29T12:38:18.569Z,180
2019-05-29T12:39:18.353Z,185
2019-05-29T12:40:18.965Z,195
2019-05-29T12:41:18.881Z,205
2019-05-29T12:42:18.736Z,210
2019-05-29T12:43:35.875Z,225
2019-05-29T12:44:18.599Z,235
2019-05-29T12:45:18.592Z,245
2019-05-29T12:46:18.653Z,255
2019-05-29T12:47:18.590Z,260
2019-05-29T12:48:24.194Z,265
2019-05-29T12:49:18.872Z,280
2019-05-29T12:50:18.846Z,280
2019-05-29T12:51:18.834Z,285
2019-05-29T12:52:19.357Z,290
2019-05-29T12:53:36.641Z,300
2019-05-29T12:54:18.883Z,305
2019-05-29T12:55:18.990Z,315
2019-05-29T12:56:18.347Z,320
2019-05-29T12:57:18.631Z,320
2019-05-29T12:58:18.837Z,325
2019-05-29T12:59:18.596Z,325
2019-05-29T13:00:18.063Z,325
2019-05-29T13:01:18.863Z,330
2019-05-29T13:02:18.574Z,330
2019-05-29T13:03:19.040Z,330
2019-05-29T13:04:18.811Z,335
2019-05-29T13:05:28.909Z,335
2019-05-29T13:06:18.581Z,335
2019-05-29T13:07:18.567Z,340
2019-05-29T13:08:18.823Z,350
2019-05-29T13:09:18.583Z,350
2019-05-29T13:10:36.439Z,355
2019-05-29T13:11:18.069Z,360
2019-05-29T13:12:18.567Z,360
2019-05-29T13:13:20.860Z,365
2019-05-29T13:14:18.091Z,370
2019-05-29T13:15:18.822Z,375
2019-05-29T13:16:18.853Z,375
2019-05-29T13:17:18.889Z,380
2019-05-29T13:18:19.569Z,385
2019-05-29T13:19:18.837Z,390
2019-05-29T13:20:30.410Z,380
2019-05-29T13:21:18.100Z,385
2019-05-29T13:22:18.351Z,390
2019-05-29T13:23:18.699Z,390
2019-05-29T13:24:21.182Z,415
2019-05-29T13:25:21.867Z,410
2019-05-29T13:26:18.826Z,385
2019-05-29T13:27:18.604Z,380
2019-05-29T13:28:18.826Z,380
2019-05-29T13:29:18.704Z,385
2019-05-29T13:30:18.356Z,390
2019-05-29T13:31:18.346Z,410
2019-05-29T13:32:18.968Z,410
2019-05-29T13:33:18.687Z,410
2019-05-29T13:34:18.835Z,400
2019-05-29T13:35:21.866Z,385
2019-05-29T13:36:18.847Z,370
2019-05-29T13:37:18.977Z,355
2019-05-29T13:38:18.580Z,350
2019-05-29T13:39:18.753Z,355
2019-05-29T13:40:18.347Z,345
2019-05-29T13:41:18.356Z,340
2019-05-29T13:42:21.625Z,365
2019-05-29T13:43:24.763Z,345
2019-05-29T13:44:18.623Z,360
2019-05-29T13:45:27.722Z,350
2019-05-29T13:46:18.589Z,335
2019-05-29T13:47:18.395Z,300
2019-05-29T13:48:18.598Z,295
2019-05-29T13:49:18.342Z,290
2019-05-29T13:50:21.826Z,290
2019-05-29T13:51:18.407Z,325
2019-05-29T13:52:21.727Z,330
2019-05-29T13:53:18.390Z,315
2019-05-29T13:54:26.205Z,305
2019-05-29T13:55:18.371Z,305
2019-05-29T13:56:18.890Z,295
2019-05-29T13:57:18.596Z,290
2019-05-29T13:58:18.632Z,285
2019-05-29T13:59:18.446Z,280
2019-05-29T14:00:42.199Z,275
2019-05-29T14:01:18.378Z,275
2019-05-29T14:02:19.757Z,270
2019-05-29T14:03:18.675Z,265
2019-05-29T14:04:18.381Z,270
2019-05-29T14:05:18.615Z,265
2019-05-29T14:06:18.962Z,265
2019-05-29T14:07:18.616Z,265
2019-05-29T14:08:18.363Z,265